KETN/ETN METAR and TAF weather

Enter ICAO airport designator
Station Type Date Time Source
KETN METAR 2019/12/08 16:55 UTC NOAA

KETN 081655Z AUTO 20012G16KT 10SM CLR 17/07 A2994 RMK AO2 T01660067


Station Type Date Time Source
KETN Decoded METAR 2019/12/08 16:55 UTC NOAA

Station name not available
Dec 08, 2019 - 11:55 AM EST / 2019.12.08 1655 UTC
Wind: from the SSW (200 degrees) at 14 MPH (12 KT) gusting to 18 MPH (16 KT):0
Visibility: 10 mile(s):0
Sky conditions: clear
Temperature: 61.9 F (16.6 C)
Dew Point: 44.1 F (6.7 C)
Relative Humidity: 51%
Pressure (altimeter): 29.94 in. Hg (1013 hPa)
ob: KETN 081655Z AUTO 20012G16KT 10SM CLR 17/07 A2994 RMK AO2 T01660067
cycle: 17

Station Type Date Time Source
KETN TAF UTC NOAA

Error!

Example: see airport list